Time;durP1;ratioP1;P1;durP2;ratioP2;P2;SDS_P1;SDS_P2;PMS_P1;PMS_P2;Temp;Humidity;BMP_temperature;BMP_pressure;BME280_temperature;BME280_humidity;BME280_pressure;Samples;Min_cycle;Max_cycle;Signal;HPM_P1;HPM_P2
2022/12/05 00:04:52;;;;;;;19.90;18.48;;;;;;;6.12;100.00;99830.00;10540147;28;20448;-72
2022/12/05 00:09:54;;;;;;;20.58;19.08;;;;;;;5.97;100.00;99829.34;10523290;28;20496;-73
2022/12/05 00:14:57;;;;;;;21.20;19.15;;;;;;;5.84;100.00;99830.38;10523558;28;20071;-74
2022/12/05 00:19:58;;;;;;;21.77;20.05;;;;;;;5.95;100.00;99820.69;10540555;28;20040;-73
2022/12/05 00:25:00;;;;;;;22.10;20.42;;;;;;;5.67;100.00;99829.81;10522570;28;20131;-73
2022/12/05 00:30:03;;;;;;;21.80;19.85;;;;;;;5.70;100.00;99834.97;10542566;28;20048;-73
2022/12/05 00:35:05;;;;;;;21.83;20.08;;;;;;;5.76;100.00;99845.31;10541976;28;20047;-74
2022/12/05 00:40:07;;;;;;;22.67;20.63;;;;;;;5.64;100.00;99840.28;10523235;28;20044;-74
2022/12/05 00:45:09;;;;;;;22.60;20.85;;;;;;;5.85;100.00;99847.78;10523079;28;20048;-74
2022/12/05 00:50:11;;;;;;;22.33;20.35;;;;;;;5.72;100.00;99847.09;10540874;28;20040;-75
2022/12/05 00:55:12;;;;;;;23.08;21.23;;;;;;;5.69;100.00;99849.75;10506985;28;20078;-74
2022/12/05 01:00:15;;;;;;;22.63;20.48;;;;;;;5.80;100.00;99847.84;10542251;28;20039;-74
2022/12/05 01:05:16;;;;;;;22.27;20.23;;;;;;;5.75;100.00;99849.66;10541549;28;20048;-73
2022/12/05 01:10:18;;;;;;;22.70;20.70;;;;;;;5.86;100.00;99843.44;10542676;28;20462;-74
2022/12/05 01:15:20;;;;;;;22.33;20.45;;;;;;;5.88;100.00;99847.72;10528520;28;20054;-73
2022/12/05 01:20:21;;;;;;;22.60;20.80;;;;;;;6.00;100.00;99855.38;10547982;28;20044;-74
2022/12/05 01:25:23;;;;;;;21.63;19.83;;;;;;;6.16;99.90;99852.56;10547904;28;20048;-73
2022/12/05 01:30:25;;;;;;;23.38;21.25;;;;;;;6.12;99.74;99843.03;10546812;28;20086;-73
2022/12/05 01:35:26;;;;;;;23.60;21.48;;;;;;;6.13;99.22;99849.97;10530482;28;20036;-72
2022/12/05 01:40:28;;;;;;;21.20;19.50;;;;;;;6.13;100.00;99847.38;10546010;28;20047;-72
2022/12/05 01:45:35;;;;;;;21.75;19.80;;;;;;;6.14;100.00;99855.16;10545872;28;20094;-72
2022/12/05 01:50:37;;;;;;;21.92;20.23;;;;;;;6.04;99.95;99858.81;10528548;28;20043;-72
2022/12/05 01:55:39;;;;;;;24.92;22.52;;;;;;;6.05;100.00;99857.94;10528720;28;20036;-72
2022/12/05 02:00:41;;;;;;;23.95;21.75;;;;;;;6.11;100.00;99864.78;10549395;28;20459;-72
2022/12/05 02:05:47;;;;;;;23.15;20.95;;;;;;;6.04;100.00;99856.22;10526868;28;20079;-72
2022/12/05 02:10:52;;;;;;;23.85;21.65;;;;;;;6.10;99.52;99852.63;10527303;28;20043;-72
2022/12/05 02:16:15;;;;;;;23.73;21.48;;;;;;;5.96;100.00;99851.09;10545324;28;20047;-73
2022/12/05 02:21:27;;;;;;;22.67;20.55;;;;;;;6.10;100.00;99860.47;10544585;28;20494;-73
2022/12/05 02:26:29;;;;;;;22.83;20.80;;;;;;;6.07;100.00;99867.47;10544569;28;20044;-73
2022/12/05 02:31:38;;;;;;;22.52;20.52;;;;;;;5.85;100.00;99858.22;10546219;28;20047;-73
2022/12/05 02:36:48;;;;;;;21.38;19.67;;;;;;;5.98;100.00;99858.94;10545918;28;20040;-71
2022/12/05 02:41:56;;;;;;;22.75;20.70;;;;;;;5.82;100.00;99859.13;10545343;28;20492;-73
2022/12/05 02:46:59;;;;;;;22.45;20.65;;;;;;;5.86;100.00;99848.66;10526906;28;20040;-72
2022/12/05 02:52:04;;;;;;;20.08;18.48;;;;;;;6.06;100.00;99849.19;10525369;28;20060;-73
2022/12/05 02:57:08;;;;;;;20.23;18.55;;;;;;;6.14;100.00;99843.88;10526130;28;20408;-74
2022/12/05 03:02:23;;;;;;;20.75;19.05;;;;;;;5.91;100.00;99847.69;10543806;28;20059;-72
2022/12/05 03:07:28;;;;;;;19.50;17.90;;;;;;;5.93;100.00;99840.75;10542380;28;20066;-73
2022/12/05 03:12:38;;;;;;;18.17;16.73;;;;;;;5.93;100.00;99843.34;10542890;28;20417;-73
2022/12/05 03:17:50;;;;;;;18.33;16.73;;;;;;;6.17;99.54;99833.38;10525701;28;20040;-73
2022/12/05 03:22:57;;;;;;;17.15;15.80;;;;;;;6.01;100.00;99835.38;10524442;28;20048;-73
2022/12/05 03:28:17;;;;;;;15.68;14.48;;;;;;;6.03;99.40;99838.84;10542915;28;20044;-73
2022/12/05 03:33:24;;;;;;;16.50;14.80;;;;;;;5.85;100.00;99845.19;10523734;28;20048;-72
2022/12/05 03:38:32;;;;;;;16.48;15.10;;;;;;;6.18;98.38;99854.22;10523434;28;20055;-72
2022/12/05 03:43:47;;;;;;;16.80;15.27;;;;;;;6.04;100.00;99856.22;10542042;28;20047;-72
2022/12/05 03:48:57;;;;;;;14.82;13.65;;;;;;;6.12;99.55;99854.34;10524962;28;20103;-72
2022/12/05 03:54:14;;;;;;;16.60;15.20;;;;;;;5.96;99.74;99858.94;10542325;28;20075;-72
2022/12/05 03:59:33;;;;;;;16.35;14.88;;;;;;;6.05;99.81;99858.78;10523984;28;20083;-72
2022/12/05 04:04:39;;;;;;;15.30;13.98;;;;;;;6.05;98.73;99856.16;10523922;28;20094;-72
2022/12/05 04:09:57;;;;;;;15.43;14.13;;;;;;;5.85;100.00;99860.84;10547691;28;20123;-72
2022/12/05 04:15:06;;;;;;;16.17;14.88;;;;;;;6.14;98.33;99854.31;10542220;28;20055;-72
2022/12/05 04:26:16;;;;;;;16.35;15.02;;;;;;;5.92;100.00;99866.84;10539687;28;20107;-71
2022/12/05 04:31:38;;;;;;;16.23;14.85;;;;;;;5.90;100.00;99871.19;10540171;28;20036;-71
2022/12/05 04:36:50;;;;;;;15.30;14.10;;;;;;;5.88;100.00;99870.34;10523204;28;20052;-70
2022/12/05 04:41:57;;;;;;;16.58;15.18;;;;;;;5.88;100.00;99862.50;10538870;28;20066;-72
2022/12/05 04:47:03;;;;;;;15.13;13.93;;;;;;;5.85;99.96;99868.66;10537235;28;20079;-71
2022/12/05 04:52:10;;;;;;;14.68;13.40;;;;;;;5.89;100.00;99878.16;10560155;28;20436;-72
2022/12/05 04:57:18;;;;;;;15.27;13.88;;;;;;;5.84;100.00;99879.94;10555380;28;20198;-72
2022/12/05 05:02:38;;;;;;;13.95;12.95;;;;;;;6.04;98.26;99885.78;10548236;28;20474;-72
2022/12/05 05:07:49;;;;;;;14.40;13.23;;;;;;;6.02;99.11;99898.00;10549906;28;20047;-72
2022/12/05 05:12:51;;;;;;;14.15;12.85;;;;;;;6.19;96.63;99896.84;10550358;28;20060;-73
2022/12/05 05:17:53;;;;;;;13.23;12.23;;;;;;;6.10;97.07;99889.16;10532824;28;20059;-73
2022/12/05 05:22:56;;;;;;;15.77;14.48;;;;;;;5.81;99.23;99895.66;10551185;28;20046;-72
2022/12/05 05:27:58;;;;;;;16.60;15.20;;;;;;;5.91;99.48;99884.22;10529584;28;20068;-72
2022/12/05 05:33:00;;;;;;;15.02;13.93;;;;;;;5.85;99.77;99894.75;10546813;28;20036;-73
2022/12/05 05:38:02;;;;;;;14.25;13.15;;;;;;;5.72;100.00;99904.50;10547688;28;20040;-73
2022/12/05 05:43:04;;;;;;;14.82;13.65;;;;;;;5.72;100.00;99909.69;10547066;28;20040;-72
2022/12/05 05:48:05;;;;;;;14.82;13.73;;;;;;;5.50;100.00;99911.75;10545811;28;20055;-72
2022/12/05 05:53:07;;;;;;;16.63;15.32;;;;;;;5.55;100.00;99912.53;10545878;28;20040;-73
2022/12/05 05:58:09;;;;;;;24.05;21.85;;;;;;;5.47;100.00;99914.38;10527341;28;20040;-73
2022/12/05 06:03:10;;;;;;;192.35;118.97;;;;;;;5.28;100.00;99916.34;10545029;28;20381;-72
2022/12/05 06:08:12;;;;;;;134.75;83.50;;;;;;;5.18;100.00;99917.34;10544781;28;20553;-72
2022/12/05 06:13:14;;;;;;;46.33;34.60;;;;;;;5.00;100.00;99925.34;10545522;28;20408;-73
2022/12/05 06:18:16;;;;;;;47.03;31.00;;;;;;;4.94;100.00;99923.69;10547053;28;20050;-73
2022/12/05 06:23:18;;;;;;;40.35;31.08;;;;;;;4.87;100.00;99924.66;10513457;28;20115;-73
2022/12/05 06:28:22;;;;;;;35.20;28.95;;;;;;;4.84;100.00;99934.22;10548465;28;20044;-72
2022/12/05 06:33:23;;;;;;;35.63;29.23;;;;;;;4.84;100.00;99948.13;10547676;28;20561;-72
2022/12/05 06:38:25;;;;;;;33.13;27.38;;;;;;;4.86;100.00;99954.16;10545334;28;20119;-73
2022/12/05 06:43:27;;;;;;;34.80;27.15;;;;;;;4.86;100.00;99958.50;10545215;28;20067;-72
2022/12/05 06:48:29;;;;;;;39.47;29.52;;;;;;;4.86;100.00;99969.78;10544905;28;20040;-72
2022/12/05 06:53:31;;;;;;;37.38;29.75;;;;;;;4.77;100.00;99982.88;10527840;28;20055;-73
2022/12/05 06:58:33;;;;;;;42.67;31.77;;;;;;;4.91;100.00;99987.97;10528038;28;20104;-73
2022/12/05 07:03:35;;;;;;;37.35;29.55;;;;;;;4.81;100.00;99988.06;10544467;28;20043;-73
2022/12/05 07:08:37;;;;;;;42.20;31.08;;;;;;;4.73;100.00;99984.66;10545270;28;20512;-75
2022/12/05 07:13:38;;;;;;;51.53;34.03;;;;;;;4.74;100.00;99982.94;10544316;28;20119;-72
2022/12/05 07:18:40;;;;;;;63.38;38.88;;;;;;;4.74;100.00;99985.53;10525220;28;20574;-72
2022/12/05 07:23:44;;;;;;;77.05;43.42;;;;;;;4.62;100.00;99990.84;10543462;28;20040;-72
2022/12/05 07:28:47;;;;;;;77.95;43.85;;;;;;;4.58;100.00;99982.19;10544334;28;20040;-74
2022/12/05 07:38:58;;;;;;;70.45;41.30;;;;;;;4.64;100.00;99996.88;10441405;28;20044;-73
2022/12/05 07:44:00;;;;;;;63.20;37.35;;;;;;;4.48;100.00;100004.84;10460254;28;20045;-73
2022/12/05 07:49:02;;;;;;;70.97;41.75;;;;;;;4.45;100.00;99999.66;10443349;28;20103;-73
2022/12/05 07:54:03;;;;;;;54.45;35.85;;;;;;;4.50;100.00;100010.88;10459093;28;20098;-73
2022/12/05 07:59:05;;;;;;;53.53;34.35;;;;;;;4.57;100.00;100016.91;10440474;28;20095;-73
2022/12/05 08:04:07;;;;;;;47.65;34.58;;;;;;;4.62;100.00;100020.34;10458070;28;20037;-74
2022/12/05 08:09:15;;;;;;;59.70;36.28;;;;;;;4.70;100.00;100028.97;10461809;28;20041;-74
2022/12/05 08:14:17;;;;;;;55.75;34.63;;;;;;;4.73;100.00;100022.84;10457648;28;20068;-73
2022/12/05 08:19:19;;;;;;;53.85;34.45;;;;;;;4.79;100.00;100021.06;10457288;28;20049;-73
2022/12/05 08:24:20;;;;;;;53.97;34.83;;;;;;;4.92;100.00;100024.44;10438735;28;20048;-73
2022/12/05 08:29:22;;;;;;;52.88;35.03;;;;;;;5.00;100.00;100029.56;10459844;28;20048;-73
2022/12/05 08:34:24;;;;;;;54.72;35.60;;;;;;;4.91;100.00;100033.09;10457530;28;20099;-73
2022/12/05 08:39:26;;;;;;;53.33;36.35;;;;;;;5.00;100.00;100040.88;10456899;28;20112;-72
2022/12/05 08:44:27;;;;;;;55.85;36.05;;;;;;;4.92;100.00;100042.66;10457395;28;20041;-72
2022/12/05 08:49:29;;;;;;;61.53;38.85;;;;;;;4.89;100.00;100037.47;10438553;28;20045;-72
2022/12/05 08:54:31;;;;;;;60.28;39.63;;;;;;;4.98;100.00;100031.31;10459020;28;20049;-72
2022/12/05 08:59:32;;;;;;;67.88;42.75;;;;;;;5.02;100.00;100035.63;10455362;28;20059;-72
2022/12/05 09:04:34;;;;;;;68.88;40.08;;;;;;;5.09;100.00;100046.84;10455998;28;20041;-72
2022/12/05 09:09:36;;;;;;;58.90;36.40;;;;;;;5.25;100.00;100054.50;10456206;28;20048;-73
2022/12/05 09:14:38;;;;;;;52.92;32.95;;;;;;;5.20;100.00;100063.25;10459749;28;20124;-72
2022/12/05 09:19:40;;;;;;;59.92;37.90;;;;;;;5.14;100.00;100068.53;10458242;28;20044;-73
2022/12/05 09:24:41;;;;;;;64.68;39.22;;;;;;;5.16;100.00;100075.44;10456472;28;20053;-73
2022/12/05 09:29:43;;;;;;;57.63;37.67;;;;;;;5.25;100.00;100087.53;10457232;28;20110;-73
2022/12/05 09:34:45;;;;;;;59.58;36.75;;;;;;;5.30;100.00;100080.53;10460603;28;20052;-71
2022/12/05 09:39:46;;;;;;;55.10;37.60;;;;;;;5.03;100.00;100090.31;10462960;28;20041;-72
2022/12/05 09:44:48;;;;;;;106.95;49.88;;;;;;;4.90;100.00;100080.00;10463494;28;20041;-72
2022/12/05 09:49:54;;;;;;;100.70;49.67;;;;;;;4.92;100.00;100076.53;10462766;28;20053;-73
2022/12/05 09:55:04;;;;;;;96.03;56.80;;;;;;;5.06;100.00;100071.19;10463246;28;20049;-73
2022/12/05 10:00:08;;;;;;;122.65;66.13;;;;;;;5.32;100.00;100077.03;10464323;28;20044;-72
2022/12/05 10:05:18;;;;;;;75.35;43.47;;;;;;;5.35;100.00;100083.94;10463342;28;20118;-73
2022/12/05 10:10:27;;;;;;;59.55;37.35;;;;;;;5.24;100.00;100088.41;10443744;28;20044;-73
2022/12/05 10:15:43;;;;;;;61.40;38.63;;;;;;;5.17;100.00;100090.19;10461860;28;20140;-72
2022/12/05 10:21:14;;;;;;;72.10;42.50;;;;;;;5.31;100.00;100088.34;10463892;28;20040;-72
2022/12/05 10:26:16;;;;;;;24.35;21.73;;;;;;;5.34;100.00;100087.44;10461159;28;20410;-72
2022/12/05 10:31:24;;;;;;;21.27;19.05;;;;;;;5.71;100.00;100092.25;10461131;28;20538;-73
2022/12/05 10:36:26;;;;;;;17.40;15.73;;;;;;;5.82;100.00;100075.63;10461764;28;20041;-72
2022/12/05 10:41:28;;;;;;;16.10;14.48;;;;;;;5.99;98.91;100075.47;10462574;28;20517;-72
2022/12/05 10:46:30;;;;;;;14.05;12.73;;;;;;;6.18;95.57;100073.47;10460505;28;20465;-72
2022/12/05 10:51:32;;;;;;;14.27;13.18;;;;;;;6.10;96.99;100061.41;10460571;28;20041;-72
2022/12/05 10:56:42;;;;;;;15.70;14.30;;;;;;;6.11;96.49;100063.13;10462052;28;20037;-73
2022/12/05 11:01:51;;;;;;;14.63;11.82;;;;;;;6.23;95.69;100069.03;10466131;28;20351;-73
2022/12/05 11:06:58;;;;;;;14.48;13.18;;;;;;;6.17;96.57;100063.91;10468838;28;20091;-73
2022/12/05 11:12:08;;;;;;;12.55;11.48;;;;;;;6.36;94.32;100064.53;10450783;28;20045;-72
2022/12/05 11:17:23;;;;;;;13.45;12.35;;;;;;;6.27;95.34;100072.47;10462091;28;20053;-72
2022/12/05 11:22:33;;;;;;;11.68;10.65;;;;;;;6.40;93.93;100071.44;10443128;28;20048;-73
2022/12/05 11:27:35;;;;;;;11.80;10.90;;;;;;;6.41;92.28;100070.53;10462288;28;20036;-73
2022/12/05 11:32:38;;;;;;;10.27;9.38;;;;;;;6.42;90.69;100059.22;10460547;28;20033;-73
2022/12/05 11:37:56;;;;;;;9.13;8.43;;;;;;;6.20;92.07;100061.28;10460169;28;20467;-73
2022/12/05 11:43:36;;;;;;;8.57;7.88;;;;;;;6.22;90.04;100063.84;10442287;28;20061;-73
2022/12/05 11:49:27;;;;;;;8.88;8.15;;;;;;;6.26;90.36;100070.75;10432472;28;20048;-73
2022/12/05 11:55:01;;;;;;;8.77;8.07;;;;;;;6.05;93.53;100064.94;10335640;28;20058;-73
2022/12/05 12:00:30;;;;;;;8.50;7.80;;;;;;;6.15;92.78;100068.28;10331677;28;20460;-73
2022/12/05 12:05:49;;;;;;;9.27;8.52;;;;;;;6.10;92.44;100066.63;10334025;28;20089;-72
2022/12/05 12:11:11;;;;;;;8.55;7.85;;;;;;;6.29;90.51;100055.94;10333413;28;20065;-73
2022/12/05 12:16:20;;;;;;;8.13;7.43;;;;;;;6.18;90.95;100054.34;10331996;28;20065;-73
2022/12/05 12:21:30;;;;;;;9.70;8.55;;;;;;;6.22;91.41;100053.41;10331648;28;20050;-74
2022/12/05 12:26:41;;;;;;;9.20;8.50;;;;;;;6.27;91.21;100049.00;10333226;28;20133;-73
2022/12/05 12:31:52;;;;;;;8.63;7.93;;;;;;;6.21;92.32;100036.91;10451638;28;20455;-73
2022/12/05 12:37:02;;;;;;;10.35;9.32;;;;;;;6.26;91.34;100035.06;10460713;28;20045;-73
2022/12/05 12:42:20;;;;;;;9.15;8.27;;;;;;;6.35;90.06;100041.91;10441110;28;20140;-73
2022/12/05 12:47:38;;;;;;;9.70;8.80;;;;;;;6.42;89.32;100027.91;10440719;28;20045;-73
2022/12/05 12:52:49;;;;;;;8.30;7.60;;;;;;;6.39;88.86;100029.69;10459610;28;20120;-73
2022/12/05 12:58:18;;;;;;;8.32;7.38;;;;;;;6.47;88.90;100041.75;10440428;28;20048;-73
2022/12/05 13:03:26;;;;;;;9.50;8.80;;;;;;;6.46;89.75;100036.53;10458187;28;20116;-73
2022/12/05 13:08:31;;;;;;;8.70;8.00;;;;;;;6.39;89.23;100035.75;10458698;28;20049;-72
2022/12/05 13:13:39;;;;;;;8.80;8.05;;;;;;;6.40;89.07;100042.72;10468850;28;20036;-72
2022/12/05 13:18:41;;;;;;;9.50;8.70;;;;;;;6.26;89.82;100040.31;10465372;28;20414;-72
2022/12/05 13:23:48;;;;;;;8.00;7.03;;;;;;;6.31;88.66;100043.69;10463815;28;20056;-72
2022/12/05 13:28:56;;;;;;;8.95;8.25;;;;;;;6.14;91.41;100042.22;10464701;28;20040;-72
2022/12/05 13:33:58;;;;;;;9.60;8.90;;;;;;;6.02;92.69;100051.06;10465689;28;20098;-72
2022/12/05 13:44:34;;;;;;;10.30;9.40;;;;;;;6.14;93.19;100077.00;10589656;28;20130;-71
2022/12/05 13:49:49;;;;;;;11.60;10.60;;;;;;;6.19;92.45;100082.16;10571635;28;20043;-72
2022/12/05 13:55:27;;;;;;;7.25;6.65;;;;;;;5.97;94.63;100071.13;10588453;28;20040;-70
2022/12/05 14:00:36;;;;;;;6.57;6.03;;;;;;;5.86;96.41;100073.00;10588359;28;20084;-70
2022/12/05 14:05:43;;;;;;;6.78;6.18;;;;;;;5.81;96.53;100073.03;10587680;28;20096;-71
2022/12/05 14:10:45;;;;;;;7.15;6.55;;;;;;;5.72;97.70;100071.41;10569035;28;20044;-70
2022/12/05 14:15:49;;;;;;;9.00;8.30;;;;;;;5.88;96.43;100071.22;10586736;28;20401;-70
2022/12/05 14:21:16;;;;;;;10.35;9.55;;;;;;;5.69;98.36;100067.97;10585919;28;20048;-70
2022/12/05 14:26:47;;;;;;;11.07;10.17;;;;;;;5.65;98.73;100066.25;10602393;28;20043;-79
2022/12/05 14:32:24;;;;;;;9.57;8.73;;;;;;;5.57;99.25;100056.78;10569046;28;20138;-81
2022/12/05 14:37:28;;;;;;;10.32;9.50;;;;;;;5.50;99.67;100056.88;10567870;28;20139;-78
2022/12/05 14:42:41;;;;;;;13.57;12.48;;;;;;;5.50;99.97;100073.38;10602523;28;20036;-81
2022/12/05 14:47:50;;;;;;;11.95;10.93;;;;;;;5.38;100.00;100065.69;10602390;28;20119;-81
2022/12/05 14:53:20;;;;;;;9.35;8.65;;;;;;;5.37;100.00;100074.38;10566709;28;20047;-80
2022/12/05 14:58:29;;;;;;;10.95;10.05;;;;;;;5.70;98.58;100077.50;10583814;28;20408;-82
2022/12/05 15:03:35;;;;;;;9.93;9.13;;;;;;;5.63;98.85;100075.88;10583440;28;20044;-80
2022/12/05 15:08:48;;;;;;;11.30;10.50;;;;;;;5.43;100.00;100076.91;10582871;28;20142;-82
2022/12/05 15:13:50;;;;;;;11.18;10.07;;;;;;;5.38;100.00;100083.06;10583917;28;20396;-81
2022/12/05 15:19:02;;;;;;;12.18;11.25;;;;;;;5.61;99.42;100080.22;10604903;28;20051;-81
2022/12/05 15:24:11;;;;;;;11.57;10.68;;;;;;;5.54;99.11;100087.25;10602053;28;20036;-82
2022/12/05 15:29:27;;;;;;;12.07;11.07;;;;;;;5.39;100.00;100090.88;10583746;28;20075;-79
2022/12/05 15:34:51;;;;;;;12.48;11.50;;;;;;;5.41;99.58;100086.50;10582935;28;20130;-81
2022/12/05 15:40:01;;;;;;;12.23;11.18;;;;;;;5.23;100.00;100086.69;10584852;28;20055;-81
2022/12/05 15:45:12;;;;;;;13.60;12.50;;;;;;;5.09;100.00;100089.44;10599316;28;20035;-80
2022/12/05 15:50:35;;;;;;;13.57;12.48;;;;;;;5.11;100.00;100095.47;10600567;28;20135;-82
2022/12/05 15:55:45;;;;;;;17.08;13.18;;;;;;;5.18;100.00;100091.94;10583071;28;20032;-80
2022/12/05 16:00:51;;;;;;;13.88;12.57;;;;;;;5.27;100.00;100099.69;10581872;28;20073;-81
2022/12/05 16:06:09;;;;;;;13.98;12.70;;;;;;;5.11;100.00;100100.69;10581949;28;20385;-82
2022/12/05 16:11:13;;;;;;;14.45;13.25;;;;;;;5.09;100.00;100109.38;10581378;28;20050;-83
2022/12/05 16:16:22;;;;;;;14.77;13.50;;;;;;;4.99;100.00;100114.66;10583074;28;20039;-82
2022/12/05 16:21:34;;;;;;;14.93;13.73;;;;;;;5.08;100.00;100111.13;10565914;28;20048;-81
2022/12/05 16:26:50;;;;;;;15.05;13.75;;;;;;;5.00;100.00;100123.34;10584877;28;20051;-81
2022/12/05 16:32:02;;;;;;;13.50;12.50;;;;;;;4.94;100.00;100119.06;10583059;28;20051;-80
2022/12/05 16:37:07;;;;;;;16.00;14.60;;;;;;;4.96;100.00;100106.91;10600802;28;20510;-82
2022/12/05 16:42:36;;;;;;;14.90;13.65;;;;;;;4.93;100.00;100111.25;10580445;28;20485;-81
2022/12/05 16:47:52;;;;;;;16.48;15.07;;;;;;;4.91;100.00;100118.19;10590682;28;20077;-82
2022/12/05 16:53:01;;;;;;;;;;;;;;;4.90;100.00;100125.16;10591185;28;20044;-80
2022/12/05 16:58:04;;;;;;;15.48;14.07;;;;;;;4.89;100.00;100123.44;10606180;28;20389;-81
2022/12/05 17:03:16;;;;;;;15.30;13.90;;;;;;;4.87;100.00;100125.19;10631579;28;20104;-81
2022/12/05 17:08:35;;;;;;;15.68;14.38;;;;;;;4.88;100.00;100113.91;10608986;28;20063;-82
2022/12/05 17:13:38;;;;;;;15.73;14.27;;;;;;;5.01;100.00;100122.50;10589168;28;20035;-81
2022/12/05 17:18:40;;;;;;;15.25;14.02;;;;;;;4.97;100.00;100129.47;10593541;28;20061;-81
2022/12/05 17:23:47;;;;;;;15.57;14.38;;;;;;;4.90;100.00;100127.75;10591685;28;20201;-82
2022/12/05 17:28:55;;;;;;;12.57;11.38;;;;;;;4.81;100.00;100128.69;10591756;28;20090;-81
2022/12/05 17:33:57;;;;;;;12.40;11.32;;;;;;;4.96;100.00;100132.09;10592760;28;20047;-81
2022/12/05 17:39:01;;;;;;;12.13;11.13;;;;;;;4.93;100.00;100125.16;10611074;28;20082;-79
2022/12/05 17:44:05;;;;;;;13.57;12.48;;;;;;;4.81;100.00;100122.63;10613273;28;20036;-79
2022/12/05 17:49:16;;;;;;;13.80;12.63;;;;;;;4.88;100.00;100121.72;10598560;28;20051;-80
2022/12/05 17:54:25;;;;;;;13.50;11.48;;;;;;;5.11;100.00;100125.88;10603156;28;20060;-80
2022/12/05 17:59:27;;;;;;;14.55;13.43;;;;;;;4.95;100.00;100138.16;10612662;28;20039;-80
2022/12/05 18:04:29;;;;;;;15.35;14.15;;;;;;;4.71;100.00;100140.06;10591952;28;20039;-80
2022/12/05 18:09:32;;;;;;;13.63;12.52;;;;;;;4.75;100.00;100143.50;10616047;28;20039;-78
2022/12/05 18:14:34;;;;;;;13.43;12.27;;;;;;;4.73;100.00;100140.88;10620659;28;20209;-80
2022/12/05 18:19:37;;;;;;;14.45;13.15;;;;;;;4.70;100.00;100145.28;10598751;28;20048;-80
2022/12/05 18:24:39;;;;;;;14.38;13.18;;;;;;;4.68;100.00;100145.28;10597546;28;20032;-80
2022/12/05 18:29:40;;;;;;;15.13;13.82;;;;;;;4.66;100.00;100138.34;10599506;28;20047;-79
2022/12/05 18:34:44;;;;;;;13.55;12.48;;;;;;;4.73;100.00;100138.28;10599307;28;20042;-79
2022/12/05 18:39:49;;;;;;;13.85;12.55;;;;;;;4.61;100.00;100140.13;10572163;28;20090;-80
2022/12/05 18:44:56;;;;;;;14.77;13.40;;;;;;;4.57;100.00;100159.25;10604224;28;20066;-79
2022/12/05 18:50:01;;;;;;;13.15;12.15;;;;;;;4.53;100.00;100158.38;10606905;28;20048;-79
2022/12/05 18:55:04;;;;;;;11.10;10.10;;;;;;;4.61;100.00;100167.03;10609948;28;20027;-79
2022/12/05 19:00:26;;;;;;;10.98;10.07;;;;;;;4.58;100.00;100180.03;10599775;28;20038;-79
2022/12/05 19:05:30;;;;;;;11.18;10.27;;;;;;;4.49;100.00;100175.75;10631981;28;20032;-81
2022/12/05 19:10:34;;;;;;;10.60;9.70;;;;;;;4.38;100.00;100171.47;10609502;28;20050;-78
2022/12/05 19:15:37;;;;;;;10.23;9.43;;;;;;;4.40;100.00;100170.59;10608592;28;20051;-77
2022/12/05 19:20:39;;;;;;;12.65;11.55;;;;;;;4.69;100.00;100170.47;10624864;28;20043;-78
2022/12/05 19:25:41;;;;;;;10.70;9.70;;;;;;;4.75;100.00;100167.81;10590557;28;20069;-79
2022/12/05 19:30:44;;;;;;;14.57;13.27;;;;;;;4.50;100.00;100161.84;10607893;28;20050;-79
2022/12/05 19:40:58;;;;;;;13.65;12.45;;;;;;;4.42;100.00;100166.22;10388681;28;20061;-73
2022/12/05 19:46:07;;;;;;;11.50;10.52;;;;;;;4.42;100.00;100157.56;10400896;28;20121;-73
2022/12/05 19:51:10;;;;;;;10.07;9.07;;;;;;;4.47;100.00;100158.41;10363732;28;20046;-74
2022/12/05 19:56:18;;;;;;;9.52;8.73;;;;;;;4.64;100.00;100168.72;10393161;28;20376;-73
2022/12/05 20:01:35;;;;;;;9.70;8.82;;;;;;;4.60;100.00;100156.59;10382652;28;20050;-74
2022/12/05 20:06:46;;;;;;;10.82;9.93;;;;;;;4.53;100.00;100155.78;10385320;28;20042;-74
2022/12/05 20:11:50;;;;;;;16.10;14.57;;;;;;;4.33;100.00;100157.59;10363083;28;20488;-73
2022/12/05 20:16:56;;;;;;;12.55;11.55;;;;;;;4.40;100.00;100165.38;10378783;28;20494;-73
2022/12/05 20:21:58;;;;;;;16.40;14.27;;;;;;;4.43;100.00;100161.91;10379916;28;20045;-73
2022/12/05 20:27:00;;;;;;;17.60;15.85;;;;;;;4.36;100.00;100165.41;10357231;28;20061;-73
2022/12/05 20:32:02;;;;;;;13.20;12.07;;;;;;;4.58;100.00;100171.38;10377519;28;20038;-73
2022/12/05 20:37:04;;;;;;;18.52;16.83;;;;;;;4.67;100.00;100174.78;10375317;28;20423;-73
2022/12/05 20:42:05;;;;;;;15.80;14.40;;;;;;;4.36;100.00;100161.06;10357930;28;20045;-74
2022/12/05 20:47:07;;;;;;;12.10;11.10;;;;;;;4.24;100.00;100154.16;10376964;28;20479;-74
2022/12/05 20:52:09;;;;;;;16.13;14.43;;;;;;;4.28;100.00;100152.41;10376907;28;20056;-74
2022/12/05 20:57:11;;;;;;;13.43;12.23;;;;;;;4.28;100.00;100145.47;10375007;28;20458;-74
2022/12/05 21:02:12;;;;;;;12.65;11.65;;;;;;;4.29;100.00;100155.03;10374475;28;20050;-74
2022/12/05 21:07:14;;;;;;;16.63;15.02;;;;;;;4.59;100.00;100136.66;10374796;28;20415;-73
2022/12/05 21:12:16;;;;;;;5.13;4.72;;;;;;;4.54;100.00;100131.47;10359112;28;20046;-74
2022/12/05 21:17:17;;;;;;;5.65;5.15;;;;;;;4.65;98.64;100137.50;10375445;28;20406;-74
2022/12/05 21:22:19;;;;;;;13.82;11.38;;;;;;;4.60;98.11;100144.44;10375837;28;20042;-74
2022/12/05 21:27:21;;;;;;;4.50;4.10;;;;;;;4.38;100.00;100142.81;10372881;28;20049;-74
2022/12/05 21:32:22;;;;;;;7.40;6.70;;;;;;;4.41;99.35;100135.00;10363099;28;20030;-74
2022/12/05 21:37:24;;;;;;;4.32;4.00;;;;;;;4.09;100.00;100140.38;10363245;28;20514;-73
2022/12/05 21:42:26;;;;;;;4.35;4.00;;;;;;;3.98;100.00;100141.25;10363989;28;20483;-74
2022/12/05 21:47:28;;;;;;;5.15;4.75;;;;;;;3.87;100.00;100132.63;10363826;28;20058;-74
2022/12/05 21:52:38;;;;;;;5.00;4.57;;;;;;;3.94;100.00;100136.97;10362614;28;20542;-74
2022/12/05 21:57:39;;;;;;;4.53;4.13;;;;;;;3.93;100.00;100132.59;10382792;28;20050;-74
2022/12/05 22:02:41;;;;;;;5.38;4.88;;;;;;;3.85;100.00;100118.78;10377926;28;20038;-74
2022/12/05 22:07:43;;;;;;;4.10;3.78;;;;;;;3.91;100.00;100126.56;10380229;28;20434;-73
2022/12/05 22:12:45;;;;;;;5.85;5.38;;;;;;;4.23;100.00;100129.03;10345794;28;20050;-73
2022/12/05 22:17:46;;;;;;;4.80;4.40;;;;;;;4.11;100.00;100128.22;10381230;28;20041;-74
2022/12/05 22:22:49;;;;;;;5.25;4.78;;;;;;;3.91;100.00;100126.56;10363618;28;20073;-74
2022/12/05 22:27:51;;;;;;;4.00;3.70;;;;;;;3.98;100.00;100138.66;10361386;28;20084;-73
2022/12/05 22:32:52;;;;;;;5.03;4.63;;;;;;;3.81;100.00;100127.47;10378418;28;20048;-74
2022/12/05 22:37:54;;;;;;;5.88;5.43;;;;;;;3.77;100.00;100125.75;10380364;28;20050;-73
2022/12/05 22:42:56;;;;;;;5.40;5.00;;;;;;;3.69;100.00;100125.75;10376169;28;20049;-74
2022/12/05 22:47:57;;;;;;;4.72;4.38;;;;;;;3.70;100.00;100108.41;10377760;28;20042;-73
2022/12/05 22:52:59;;;;;;;5.43;5.03;;;;;;;3.73;100.00;100106.69;10361345;28;20045;-74
2022/12/05 22:58:01;;;;;;;3.97;3.67;;;;;;;3.76;100.00;100100.59;10363017;28;20491;-74
2022/12/05 23:03:03;;;;;;;4.80;4.40;;;;;;;4.07;100.00;100100.47;10379681;28;20034;-74
2022/12/05 23:08:05;;;;;;;5.30;4.90;;;;;;;4.26;99.99;100102.13;10402113;28;20045;-73
2022/12/05 23:13:08;;;;;;;4.57;4.28;;;;;;;4.14;100.00;100090.03;10401337;28;20076;-75
2022/12/05 23:18:09;;;;;;;4.82;4.43;;;;;;;4.27;100.00;100083.91;10401011;28;20050;-73
2022/12/05 23:23:11;;;;;;;5.03;4.63;;;;;;;4.25;100.00;100079.56;10419724;28;20069;-73
2022/12/05 23:28:13;;;;;;;4.70;4.30;;;;;;;4.32;99.80;100067.41;10401422;28;20406;-74
2022/12/05 23:33:14;;;;;;;5.28;4.88;;;;;;;4.34;99.52;100057.84;10401047;28;20046;-74
2022/12/05 23:38:16;;;;;;;5.50;5.10;;;;;;;4.23;100.00;100055.31;10384390;28;20045;-74